Impacts METAR Board
IDs:

KATL - Atlanta/Hartsfield-J, GA, US

Updated at: 1300 UTC 24 Aug 2019
Potential Impact None Slight Moderate High
Time 24/01Z 24/02Z 24/03Z 24/04Z 24/05Z 24/06Z 24/07Z 24/08Z 24/09Z 24/10Z 24/11Z 24/12Z 24/13Z
Temp82 81 81 80 79 78 77 75 75 75 75 75 79
Dewpt72 71 72 70 69 71 70 70 70 70 70 71 71
Altim30.01 30.04 30.05 30.04 30.04 30.04 30.03 30.02 30.02 30.02 30.04 30.06 30.07
VIS10 10 10 10 10 10 10 10 10 10 10 10 10
CIG150 150 150 150 150 -- -- -- -- -- -- -- --
CoverBKNBKNBKNBKNBKNSCTFEWFEWFEWFEWFEWSCTSCT
FltCatVFRVFRVFRVFRVFRVFRVFRVFRVFRVFRVFRVFRVFR
WX-RA------------------------
WDir2202100110031012016000330350340
WSpd6 4 0 5 0 3 3 3 0 0 3 4 4
WGst-- -- -- -- -- -- -- -- -- -- -- -- --
Raw hourly METARs
KATL 240052Z 22006KT 10SM -RA FEW050 SCT090 BKN150 BKN250 28/22 A3001 RMK AO2 RAB47 SLP149 P0000 T02780222
KATL 240152Z 21004KT 10SM SCT065 BKN150 BKN250 27/22 A3004 RMK AO2 RAE0059 SLP159 P0000 T02720217
KATL 240252Z 00000KT 10SM FEW025 SCT050 BKN150 BKN250 27/22 A3005 RMK AO2 SLP162 60000 T02720222 53014
KATL 240352Z 11005KT 10SM FEW050 BKN150 BKN250 27/21 A3004 RMK AO2 SLP160 T02670211
KATL 240452Z 00000KT 10SM BKN150 BKN250 26/21 A3004 RMK AO2 SLP161 T02610206 403440244
KATL 240552Z 31003KT 10SM FEW055 SCT150 SCT250 26/22 A3004 RMK AO2 SLP161 60000 T02560217 10283 20256 55001
KATL 240652Z 12003KT 10SM FEW055 FEW150 FEW250 25/21 A3003 RMK AO2 SLP157 T02500211
KATL 240752Z 16003KT 10SM FEW055 FEW150 FEW250 24/21 A3002 RMK AO2 SLP155 T02390211
KATL 240852Z 00000KT 10SM FEW055 FEW250 24/21 A3002 RMK AO2 SLP154 T02390211 56009
KATL 240952Z 00000KT 10SM FEW200 24/21 A3002 RMK AO2 SLP155 T02390211
KATL 241052Z 33003KT 10SM FEW009 FEW150 FEW200 24/21 A3004 RMK AO2 SLP161 T02390211
KATL 241205Z 35004KT 10SM FEW003 SCT200 24/22 A3006 RMK AO2 VIS LWR SE-SW T02390217
KATL 241252Z 34004KT 10SM FEW007 FEW065 FEW150 SCT200 26/22 A3007 RMK AO2 SLP172 T02610217



Page loaded:  13:07 UTC  |   06:07 AM Pacific  |   07:07 AM Mountain  |   08:07 AM Central  |   09:07 AM Eastern

 

ADVISORIES

FORECASTS

FORECASTS

OBSERVATIONS

USER TOOLS

ABOUT US